sensor_id;sensor_type;location;lat;lon;timestamp;temperature;humidity
67586;SHT31;55785;47.946;20.540;2023-03-01T18:25:20;2.81;65.04
67586;SHT31;55785;47.946;20.540;2023-03-01T18:27:46;2.46;66.22
67586;SHT31;55785;47.946;20.540;2023-03-01T18:30:12;2.36;66.85
67586;SHT31;55785;47.946;20.540;2023-03-01T18:32:37;2.37;66.50
67586;SHT31;55785;47.946;20.540;2023-03-01T18:35:03;2.36;66.88
67586;SHT31;55785;47.946;20.540;2023-03-01T18:37:28;2.19;66.58
67586;SHT31;55785;47.946;20.540;2023-03-01T18:39:54;2.13;66.90
67586;SHT31;55785;47.946;20.540;2023-03-01T18:42:20;1.84;67.61
67586;SHT31;55785;47.946;20.540;2023-03-01T18:44:46;1.71;67.71
67586;SHT31;55785;47.946;20.540;2023-03-01T18:47:12;1.51;68.63
67586;SHT31;55785;47.946;20.540;2023-03-01T18:49:37;1.43;68.54
67586;SHT31;55785;47.946;20.540;2023-03-01T18:52:03;1.42;68.18
67586;SHT31;55785;47.946;20.540;2023-03-01T18:54:28;1.39;68.09
67586;SHT31;55785;47.946;20.540;2023-03-01T18:56:53;1.22;68.89
67586;SHT31;55785;47.946;20.540;2023-03-01T18:59:19;1.19;68.32
67586;SHT31;55785;47.946;20.540;2023-03-01T19:01:44;1.17;68.28
67586;SHT31;55785;47.946;20.540;2023-03-01T19:04:10;1.17;68.11
67586;SHT31;55785;47.946;20.540;2023-03-01T19:06:36;1.24;69.04
67586;SHT31;55785;47.946;20.540;2023-03-01T19:09:03;0.91;69.45
67586;SHT31;55785;47.946;20.540;2023-03-01T19:11:28;0.88;69.86
67586;SHT31;55785;47.946;20.540;2023-03-01T19:13:53;0.84;70.07
67586;SHT31;55785;47.946;20.540;2023-03-01T19:16:24;0.60;70.63
67586;SHT31;55785;47.946;20.540;2023-03-01T19:18:50;0.55;70.32
67586;SHT31;55785;47.946;20.540;2023-03-01T19:21:17;0.48;70.01
67586;SHT31;55785;47.946;20.540;2023-03-01T19:23:43;0.50;70.19
67586;SHT31;55785;47.946;20.540;2023-03-01T19:26:11;0.45;70.76
67586;SHT31;55785;47.946;20.540;2023-03-01T19:28:38;0.43;70.41
67586;SHT31;55785;47.946;20.540;2023-03-01T19:31:09;0.30;71.14
67586;SHT31;55785;47.946;20.540;2023-03-01T19:33:35;0.33;71.23
67586;SHT31;55785;47.946;20.540;2023-03-01T19:36:02;0.23;71.34
67586;SHT31;55785;47.946;20.540;2023-03-01T19:38:28;0.06;72.90
67586;SHT31;55785;47.946;20.540;2023-03-01T19:40:55;-0.03;72.63
67586;SHT31;55785;47.946;20.540;2023-03-01T19:43:21;-0.11;72.59
67586;SHT31;55785;47.946;20.540;2023-03-01T19:45:55;-0.28;71.86
67586;SHT31;55785;47.946;20.540;2023-03-01T19:48:21;-0.22;70.95
67586;SHT31;55785;47.946;20.540;2023-03-01T19:50:46;-0.29;70.13
67586;SHT31;55785;47.946;20.540;2023-03-01T19:53:13;-0.31;70.62
67586;SHT31;55785;47.946;20.540;2023-03-01T19:55:39;-0.25;70.78
67586;SHT31;55785;47.946;20.540;2023-03-01T19:58:05;-0.43;71.77
67586;SHT31;55785;47.946;20.540;2023-03-01T20:00:32;-0.63;72.25
67586;SHT31;55785;47.946;20.540;2023-03-01T20:02:58;-0.69;72.90
67586;SHT31;55785;47.946;20.540;2023-03-01T20:05:23;-0.92;73.88
67586;SHT31;55785;47.946;20.540;2023-03-01T20:07:49;-0.92;73.63
67586;SHT31;55785;47.946;20.540;2023-03-01T20:10:14;-0.82;72.86
67586;SHT31;55785;47.946;20.540;2023-03-01T20:12:40;-0.63;71.72
67586;SHT31;55785;47.946;20.540;2023-03-01T20:15:05;-0.52;71.65
67586;SHT31;55785;47.946;20.540;2023-03-01T20:17:31;-0.32;68.44
67586;SHT31;55785;47.946;20.540;2023-03-01T20:19:56;-0.36;69.44
67586;SHT31;55785;47.946;20.540;2023-03-01T20:22:22;-0.42;70.84
67586;SHT31;55785;47.946;20.540;2023-03-01T20:24:47;-0.31;70.71
67586;SHT31;55785;47.946;20.540;2023-03-01T20:27:12;-0.29;66.92
67586;SHT31;55785;47.946;20.540;2023-03-01T20:29:38;-0.10;65.21
67586;SHT31;55785;47.946;20.540;2023-03-01T20:32:03;0.26;60.55
67586;SHT31;55785;47.946;20.540;2023-03-01T20:34:29;0.51;61.14
67586;SHT31;55785;47.946;20.540;2023-03-01T20:36:54;0.65;60.79
67586;SHT31;55785;47.946;20.540;2023-03-01T20:39:19;0.61;61.32
67586;SHT31;55785;47.946;20.540;2023-03-01T20:41:45;0.75;60.79
67586;SHT31;55785;47.946;20.540;2023-03-01T20:44:10;0.65;61.53
67586;SHT31;55785;47.946;20.540;2023-03-01T20:46:36;0.53;61.79
67586;SHT31;55785;47.946;20.540;2023-03-01T20:49:02;0.55;60.70
67586;SHT31;55785;47.946;20.540;2023-03-01T20:51:27;0.54;59.41
67586;SHT31;55785;47.946;20.540;2023-03-01T20:53:53;0.47;62.21
67586;SHT31;55785;47.946;20.540;2023-03-01T20:56:20;0.31;61.23
67586;SHT31;55785;47.946;20.540;2023-03-01T20:58:45;0.28;61.25
67586;SHT31;55785;47.946;20.540;2023-03-01T21:01:15;0.27;59.85
67586;SHT31;55785;47.946;20.540;2023-03-01T21:03:41;0.18;62.77
67586;SHT31;55785;47.946;20.540;2023-03-01T21:06:06;0.18;61.83
67586;SHT31;55785;47.946;20.540;2023-03-01T21:08:33;0.10;61.95
67586;SHT31;55785;47.946;20.540;2023-03-01T21:10:58;0.00;62.95
67586;SHT31;55785;47.946;20.540;2023-03-01T21:13:25;0.03;61.11
67586;SHT31;55785;47.946;20.540;2023-03-01T21:15:52;0.02;60.79
67586;SHT31;55785;47.946;20.540;2023-03-01T21:18:19;0.10;59.55
67586;SHT31;55785;47.946;20.540;2023-03-01T21:20:44;0.06;60.52
67586;SHT31;55785;47.946;20.540;2023-03-01T21:23:09;-0.03;59.87
67586;SHT31;55785;47.946;20.540;2023-03-01T21:25:34;-0.18;63.49
67586;SHT31;55785;47.946;20.540;2023-03-01T21:28:00;-0.35;64.21
67586;SHT31;55785;47.946;20.540;2023-03-01T21:30:25;-0.34;65.32
67586;SHT31;55785;47.946;20.540;2023-03-01T21:32:51;-0.34;64.42
67586;SHT31;55785;47.946;20.540;2023-03-01T21:35:16;-0.39;64.15
67586;SHT31;55785;47.946;20.540;2023-03-01T21:37:41;-0.42;62.96
67586;SHT31;55785;47.946;20.540;2023-03-01T21:40:07;-0.39;62.10
67586;SHT31;55785;47.946;20.540;2023-03-01T21:42:34;-0.39;62.71
67586;SHT31;55785;47.946;20.540;2023-03-01T21:44:59;-0.53;61.79
67586;SHT31;55785;47.946;20.540;2023-03-01T21:47:25;-0.56;63.56
67586;SHT31;55785;47.946;20.540;2023-03-01T21:49:50;-0.53;62.58
67586;SHT31;55785;47.946;20.540;2023-03-01T21:52:15;-0.72;65.11
67586;SHT31;55785;47.946;20.540;2023-03-01T21:54:41;-0.80;65.20
67586;SHT31;55785;47.946;20.540;2023-03-01T21:57:06;-0.94;65.20
67586;SHT31;55785;47.946;20.540;2023-03-01T21:59:31;-0.73;63.24
67586;SHT31;55785;47.946;20.540;2023-03-01T22:01:57;-0.79;65.34
67586;SHT31;55785;47.946;20.540;2023-03-01T22:04:22;-0.66;62.22
67586;SHT31;55785;47.946;20.540;2023-03-01T22:06:47;-0.61;61.87
67586;SHT31;55785;47.946;20.540;2023-03-01T22:09:21;-0.63;61.81
67586;SHT31;55785;47.946;20.540;2023-03-01T22:11:49;-0.59;63.65
67586;SHT31;55785;47.946;20.540;2023-03-01T22:14:17;-0.39;61.42
67586;SHT31;55785;47.946;20.540;2023-03-01T22:16:43;-0.13;59.85
67586;SHT31;55785;47.946;20.540;2023-03-01T22:19:08;-0.11;62.10
67586;SHT31;55785;47.946;20.540;2023-03-01T22:21:37;0.00;61.90
67586;SHT31;55785;47.946;20.540;2023-03-01T22:24:03;-0.25;63.47
67586;SHT31;55785;47.946;20.540;2023-03-01T22:26:35;-0.29;63.23
67586;SHT31;55785;47.946;20.540;2023-03-01T22:29:04;-0.31;64.01
67586;SHT31;55785;47.946;20.540;2023-03-01T22:31:30;-0.36;64.33
67586;SHT31;55785;47.946;20.540;2023-03-01T22:33:56;-0.51;66.54
67586;SHT31;55785;47.946;20.540;2023-03-01T22:36:22;-0.73;66.78
67586;SHT31;55785;47.946;20.540;2023-03-01T22:38:47;-0.86;67.68
67586;SHT31;55785;47.946;20.540;2023-03-01T22:41:13;-0.84;67.69
67586;SHT31;55785;47.946;20.540;2023-03-01T22:43:39;-0.84;67.88
67586;SHT31;55785;47.946;20.540;2023-03-01T22:46:16;-0.86;67.22
67586;SHT31;55785;47.946;20.540;2023-03-01T22:48:43;-0.83;66.90
67586;SHT31;55785;47.946;20.540;2023-03-01T22:51:18;-0.73;67.39
67586;SHT31;55785;47.946;20.540;2023-03-01T22:53:43;-0.87;67.53
67586;SHT31;55785;47.946;20.540;2023-03-01T22:56:21;-0.89;67.37
67586;SHT31;55785;47.946;20.540;2023-03-01T22:58:47;-0.89;67.78
67586;SHT31;55785;47.946;20.540;2023-03-01T23:01:23;-0.93;67.72
67586;SHT31;55785;47.946;20.540;2023-03-01T23:03:49;-0.90;68.00
67586;SHT31;55785;47.946;20.540;2023-03-01T23:06:16;-1.12;68.88
67586;SHT31;55785;47.946;20.540;2023-03-01T23:08:42;-1.61;70.12
67586;SHT31;55785;47.946;20.540;2023-03-01T23:11:13;-1.86;72.24
67586;SHT31;55785;47.946;20.540;2023-03-01T23:13:40;-1.85;71.64
67586;SHT31;55785;47.946;20.540;2023-03-01T23:16:08;-1.72;71.57
67586;SHT31;55785;47.946;20.540;2023-03-01T23:18:36;-1.55;71.20
67586;SHT31;55785;47.946;20.540;2023-03-01T23:21:13;-1.38;70.52
67586;SHT31;55785;47.946;20.540;2023-03-01T23:23:40;-1.38;70.26
67586;SHT31;55785;47.946;20.540;2023-03-01T23:26:06;-1.25;69.90
67586;SHT31;55785;47.946;20.540;2023-03-01T23:28:32;-1.30;69.13
67586;SHT31;55785;47.946;20.540;2023-03-01T23:30:59;-1.31;68.91
67586;SHT31;55785;47.946;20.540;2023-03-01T23:33:26;-1.27;68.42
67586;SHT31;55785;47.946;20.540;2023-03-01T23:35:52;-1.22;67.53
67586;SHT31;55785;47.946;20.540;2023-03-01T23:38:18;-1.18;67.72
67586;SHT31;55785;47.946;20.540;2023-03-01T23:40:44;-1.17;67.87
67586;SHT31;55785;47.946;20.540;2023-03-01T23:43:09;-1.25;67.75
67586;SHT31;55785;47.946;20.540;2023-03-01T23:45:39;-1.34;68.38
67586;SHT31;55785;47.946;20.540;2023-03-01T23:48:04;-1.32;68.39
67586;SHT31;55785;47.946;20.540;2023-03-01T23:50:30;-1.20;67.49
67586;SHT31;55785;47.946;20.540;2023-03-01T23:52:55;-1.25;67.86
67586;SHT31;55785;47.946;20.540;2023-03-01T23:55:21;-1.38;68.04
67586;SHT31;55785;47.946;20.540;2023-03-01T23:57:48;-1.41;68.29
